createdAt,value
2023-01-17T00:00:28.236Z,29.00
2023-01-17T00:03:15.293Z,26.50
2023-01-17T00:06:01.136Z,24.20
2023-01-17T00:08:46.885Z,50.50
2023-01-17T00:11:14.020Z,23.40
2023-01-17T00:13:41.376Z,30.00
2023-01-17T00:16:08.551Z,37.40
2023-01-17T00:18:35.784Z,32.20
2023-01-17T00:21:21.953Z,22.00
2023-01-17T00:24:07.458Z,24.20
2023-01-17T00:26:34.734Z,29.60
2023-01-17T00:29:02.197Z,22.10
2023-01-17T00:31:29.332Z,23.90
2023-01-17T00:33:56.442Z,38.00
2023-01-17T00:36:23.543Z,23.50
2023-01-17T00:38:50.615Z,25.70
2023-01-17T00:41:17.818Z,22.90
2023-01-17T00:44:03.390Z,24.50
2023-01-17T00:46:49.308Z,27.20
2023-01-17T00:49:35.418Z,19.20
2023-01-17T00:55:07.429Z,23.50
2023-01-17T01:00:39.637Z,25.10
2023-01-17T01:03:28.240Z,19.90
2023-01-17T01:06:14.418Z,20.70
2023-01-17T01:11:46.517Z,18.40
2023-01-17T01:14:32.630Z,18.50
2023-01-17T01:20:04.039Z,40.00
2023-01-17T01:22:50.089Z,39.60
2023-01-17T01:25:35.847Z,35.80
2023-01-17T01:28:29.355Z,29.50
2023-01-17T01:31:15.192Z,22.00
2023-01-17T01:33:42.329Z,68.30
2023-01-17T01:36:09.861Z,52.60
2023-01-17T01:38:37.089Z,25.60
2023-01-17T01:41:05.092Z,24.30
2023-01-17T01:43:44.625Z,26.90
2023-01-17T01:46:16.386Z,23.40
2023-01-17T01:49:05.504Z,23.30
2023-01-17T01:51:41.126Z,21.60
2023-01-17T01:56:39.939Z,19.50
2023-01-17T01:59:11.393Z,20.40
2023-01-17T02:01:38.741Z,19.40
2023-01-17T02:04:10.120Z,15.90
2023-01-17T02:07:06.820Z,17.20
2023-01-17T02:09:34.605Z,15.90
2023-01-17T02:12:03.345Z,12.70
2023-01-17T02:14:30.848Z,12.90
2023-01-17T02:17:06.188Z,15.80
2023-01-17T02:19:55.502Z,16.00
2023-01-17T02:22:47.847Z,11.20
2023-01-17T02:25:24.346Z,11.50
2023-01-17T02:28:11.798Z,10.80
2023-01-17T02:30:48.547Z,12.40
2023-01-17T02:33:43.554Z,8.30
2023-01-17T02:36:13.681Z,8.60
2023-01-17T02:38:52.494Z,8.30
2023-01-17T02:41:25.073Z,9.60
2023-01-17T02:43:53.896Z,8.90
2023-01-17T02:46:21.318Z,11.10
2023-01-17T02:48:49.530Z,12.20
2023-01-17T02:51:44.630Z,8.70
2023-01-17T02:54:38.140Z,7.10
2023-01-17T02:57:26.877Z,11.20
2023-01-17T03:00:04.215Z,11.00
2023-01-17T03:03:13.836Z,9.30
2023-01-17T03:05:50.485Z,9.90
2023-01-17T03:08:18.944Z,6.40
2023-01-17T03:10:46.700Z,8.00
2023-01-17T03:13:14.010Z,10.90
2023-01-17T03:15:41.520Z,6.10
2023-01-17T03:18:13.667Z,8.20
2023-01-17T03:20:41.400Z,10.10
2023-01-17T03:23:08.866Z,9.40
2023-01-17T03:25:36.119Z,9.50
2023-01-17T03:28:04.045Z,13.00
2023-01-17T03:30:31.469Z,12.00
2023-01-17T03:32:58.694Z,8.80
2023-01-17T03:35:25.944Z,11.60
2023-01-17T03:37:53.068Z,12.40
2023-01-17T03:40:20.294Z,11.70
2023-01-17T03:42:47.524Z,10.60
2023-01-17T03:45:14.902Z,11.30
2023-01-17T03:47:42.083Z,8.30
2023-01-17T03:50:10.156Z,10.50
2023-01-17T03:52:37.469Z,12.10
2023-01-17T03:55:05.560Z,21.40
2023-01-17T03:57:32.680Z,15.10
2023-01-17T03:59:59.829Z,15.30
2023-01-17T04:02:27.009Z,10.40
2023-01-17T04:04:54.213Z,11.10
2023-01-17T04:07:22.079Z,13.90
2023-01-17T04:09:49.147Z,15.30
2023-01-17T04:12:16.346Z,15.40
2023-01-17T04:14:43.500Z,14.80
2023-01-17T04:17:12.669Z,21.90
2023-01-17T04:19:41.187Z,17.70
2023-01-17T04:22:08.742Z,16.90
2023-01-17T04:24:36.918Z,18.30
2023-01-17T04:27:05.152Z,19.60
2023-01-17T04:29:32.632Z,23.00
2023-01-17T04:31:59.827Z,26.30
2023-01-17T04:34:27.319Z,34.20
2023-01-17T04:36:54.487Z,29.20
2023-01-17T04:39:21.662Z,32.80
2023-01-17T04:41:48.917Z,38.90
2023-01-17T04:44:16.090Z,102.40
2023-01-17T04:46:43.294Z,56.60
2023-01-17T04:49:10.502Z,32.90
2023-01-17T04:51:37.682Z,28.80
2023-01-17T04:54:04.876Z,34.20
2023-01-17T04:56:32.150Z,86.00
2023-01-17T04:58:59.406Z,28.50
2023-01-17T05:01:27.169Z,22.00
2023-01-17T05:03:54.323Z,26.70
2023-01-17T05:06:21.530Z,30.50
2023-01-17T05:08:48.752Z,32.30
2023-01-17T05:11:15.873Z,41.40
2023-01-17T05:13:43.253Z,39.40
2023-01-17T05:16:10.480Z,26.60
2023-01-17T05:18:37.839Z,23.30
2023-01-17T05:21:05.247Z,37.60
2023-01-17T05:23:33.085Z,30.30
2023-01-17T05:26:00.338Z,37.10
2023-01-17T05:28:27.540Z,27.40
2023-01-17T05:30:54.672Z,32.00
2023-01-17T05:33:21.820Z,23.50
2023-01-17T05:35:48.992Z,21.90
2023-01-17T05:38:16.169Z,25.50
2023-01-17T05:40:43.293Z,17.60
2023-01-17T05:43:10.501Z,33.50
2023-01-17T05:45:38.493Z,32.00
2023-01-17T05:48:06.734Z,31.30
2023-01-17T05:50:36.688Z,36.60
2023-01-17T05:53:05.175Z,29.90
2023-01-17T05:55:34.076Z,30.90
2023-01-17T05:58:02.060Z,39.70
2023-01-17T06:00:30.404Z,36.10
2023-01-17T06:02:59.632Z,33.40
2023-01-17T06:05:28.331Z,51.60
2023-01-17T06:07:56.597Z,80.60
2023-01-17T06:10:24.648Z,64.50
2023-01-17T06:13:01.068Z,48.60
2023-01-17T06:15:28.182Z,65.40
2023-01-17T06:17:55.491Z,120.70
2023-01-17T06:20:22.823Z,56.60
2023-01-17T06:22:50.250Z,64.40
2023-01-17T06:25:17.477Z,44.60
2023-01-17T06:27:44.761Z,35.30
2023-01-17T06:30:12.273Z,38.70
2023-01-17T06:32:39.418Z,44.80
2023-01-17T06:35:07.055Z,41.40
2023-01-17T06:37:34.259Z,44.60
2023-01-17T06:40:01.461Z,61.20
2023-01-17T06:42:28.659Z,59.10
2023-01-17T06:44:55.756Z,61.10
2023-01-17T06:47:22.997Z,53.00
2023-01-17T06:49:50.112Z,45.00
2023-01-17T06:52:17.255Z,63.50
2023-01-17T06:54:44.383Z,50.40
2023-01-17T06:57:11.570Z,52.30
2023-01-17T06:59:38.659Z,57.50
2023-01-17T07:02:05.924Z,66.70
2023-01-17T07:04:34.694Z,49.20
2023-01-17T07:07:01.830Z,39.70
2023-01-17T07:09:29.015Z,30.80
2023-01-17T07:11:59.827Z,30.80
2023-01-17T07:14:26.994Z,41.70
2023-01-17T07:16:54.729Z,32.60
2023-01-17T07:19:22.074Z,37.20
2023-01-17T07:21:54.318Z,29.50
2023-01-17T07:24:22.121Z,31.60
2023-01-17T07:26:52.589Z,27.40
2023-01-17T07:29:19.723Z,29.30
2023-01-17T07:31:49.190Z,38.40
2023-01-17T07:34:16.561Z,30.20
2023-01-17T07:36:43.659Z,39.00
2023-01-17T07:39:10.945Z,21.50
2023-01-17T07:41:41.476Z,38.00
2023-01-17T07:44:11.000Z,27.90
2023-01-17T07:46:38.188Z,26.20
2023-01-17T07:49:05.378Z,21.70
2023-01-17T07:51:33.480Z,23.80
2023-01-17T07:54:00.702Z,47.30
2023-01-17T07:56:27.877Z,35.40
2023-01-17T07:58:55.055Z,36.30
2023-01-17T08:01:22.321Z,37.40
2023-01-17T08:03:53.468Z,35.50
2023-01-17T08:06:23.910Z,36.70
2023-01-17T08:08:52.310Z,43.40
2023-01-17T08:11:19.547Z,37.80
2023-01-17T08:13:46.722Z,30.30
2023-01-17T08:16:14.247Z,32.50
2023-01-17T08:18:41.890Z,28.90
2023-01-17T08:21:16.995Z,28.00
2023-01-17T08:23:51.148Z,21.30
2023-01-17T08:26:22.518Z,39.70
2023-01-17T08:29:00.635Z,37.00
2023-01-17T08:31:30.320Z,28.20
2023-01-17T08:33:57.718Z,26.50
2023-01-17T08:36:25.964Z,33.90
2023-01-17T08:38:53.816Z,28.60
2023-01-17T08:41:22.082Z,28.20
2023-01-17T08:43:49.933Z,35.40
2023-01-17T08:46:17.745Z,30.80
2023-01-17T08:48:45.149Z,20.40
2023-01-17T08:51:12.313Z,22.30
2023-01-17T08:53:40.792Z,29.50
2023-01-17T08:56:09.465Z,27.40
2023-01-17T08:58:36.623Z,28.20
2023-01-17T09:01:06.219Z,24.90
2023-01-17T09:03:34.432Z,23.80
2023-01-17T09:06:07.231Z,39.90
2023-01-17T09:08:34.663Z,24.20
2023-01-17T09:11:06.448Z,24.40
2023-01-17T09:13:33.880Z,25.30
2023-01-17T09:16:01.978Z,21.70
2023-01-17T09:18:30.736Z,20.80
2023-01-17T09:20:59.409Z,17.20
2023-01-17T09:23:28.651Z,22.20
2023-01-17T09:26:00.181Z,20.10
2023-01-17T09:28:27.968Z,26.90
2023-01-17T09:30:55.491Z,18.80
2023-01-17T09:33:25.859Z,28.90
2023-01-17T09:35:52.983Z,31.60
2023-01-17T09:38:21.854Z,25.70
2023-01-17T09:40:49.177Z,25.50
2023-01-17T09:43:25.607Z,41.40
2023-01-17T09:45:53.090Z,50.60
2023-01-17T09:48:36.304Z,25.10
2023-01-17T09:51:12.583Z,28.80
2023-01-17T09:53:41.844Z,28.90
2023-01-17T09:56:16.393Z,29.50
2023-01-17T09:59:05.639Z,26.20
2023-01-17T10:01:55.764Z,37.10
2023-01-17T10:04:44.197Z,27.80
2023-01-17T10:07:42.252Z,28.50
2023-01-17T10:10:37.484Z,27.80
2023-01-17T10:13:15.982Z,19.70
2023-01-17T10:15:52.229Z,28.70
2023-01-17T10:18:29.495Z,28.10
2023-01-17T10:20:59.931Z,29.40
2023-01-17T10:23:56.633Z,27.60
2023-01-17T10:26:25.074Z,41.70
2023-01-17T10:28:55.662Z,38.60
2023-01-17T10:31:24.666Z,35.00
2023-01-17T10:34:05.199Z,40.60
2023-01-17T10:36:40.380Z,47.30
2023-01-17T10:39:23.230Z,42.00
2023-01-17T10:41:58.584Z,27.80
2023-01-17T10:45:09.071Z,34.70
2023-01-17T10:47:39.603Z,30.20
2023-01-17T10:50:11.744Z,17.80
2023-01-17T10:53:06.661Z,30.20
2023-01-17T10:55:40.150Z,20.30
2023-01-17T10:58:12.513Z,19.80
2023-01-17T11:00:51.889Z,18.50
2023-01-17T11:03:21.005Z,16.40
2023-01-17T11:06:17.893Z,16.80
2023-01-17T11:08:59.613Z,19.70
2023-01-17T11:11:32.131Z,17.00
2023-01-17T11:14:03.332Z,13.00
2023-01-17T11:16:31.972Z,17.70
2023-01-17T11:19:16.626Z,21.00
2023-01-17T11:21:53.894Z,11.70
2023-01-17T11:24:30.462Z,8.70
2023-01-17T11:26:58.470Z,13.30
2023-01-17T11:29:40.531Z,15.30
2023-01-17T11:32:23.192Z,19.70
2023-01-17T11:35:07.861Z,19.10
2023-01-17T11:37:36.586Z,11.60
2023-01-17T11:40:09.239Z,12.10
2023-01-17T11:42:37.924Z,18.80
2023-01-17T11:45:24.953Z,13.20
2023-01-17T11:48:17.043Z,15.00
2023-01-17T11:50:46.578Z,9.30
2023-01-17T11:53:22.567Z,9.10
2023-01-17T11:56:01.355Z,9.30
2023-01-17T11:58:29.298Z,11.30
2023-01-17T12:01:21.379Z,13.20
2023-01-17T12:03:51.646Z,14.30
2023-01-17T12:06:26.228Z,19.20
2023-01-17T12:08:59.031Z,12.60
2023-01-17T12:11:29.005Z,13.90
2023-01-17T12:14:06.651Z,16.50
2023-01-17T12:16:46.558Z,16.50
2023-01-17T12:19:28.521Z,20.30
2023-01-17T12:22:16.792Z,19.20
2023-01-17T12:24:52.861Z,11.90
2023-01-17T12:27:31.932Z,10.10
2023-01-17T12:30:33.503Z,10.30
2023-01-17T12:33:22.144Z,21.00
2023-01-17T12:35:55.233Z,13.00
2023-01-17T12:38:40.076Z,12.70
2023-01-17T12:41:13.804Z,11.20
2023-01-17T12:43:42.084Z,12.20
2023-01-17T12:46:21.137Z,22.90
2023-01-17T12:48:53.179Z,18.70
2023-01-17T12:51:41.452Z,22.60
2023-01-17T12:54:24.473Z,15.80
2023-01-17T12:56:56.682Z,14.20
2023-01-17T12:59:37.189Z,17.10
2023-01-17T13:02:18.734Z,18.00
2023-01-17T13:05:05.575Z,21.60
2023-01-17T13:07:55.283Z,13.60
2023-01-17T13:10:44.388Z,14.30
2023-01-17T13:13:22.278Z,14.80
2023-01-17T13:15:52.491Z,14.60
2023-01-17T13:18:25.929Z,22.50
2023-01-17T13:21:11.664Z,13.40
2023-01-17T13:23:59.849Z,45.20
2023-01-17T13:26:40.444Z,22.40
2023-01-17T13:29:10.491Z,67.40
2023-01-17T13:32:05.827Z,32.30
2023-01-17T13:35:00.958Z,37.90
2023-01-17T13:37:41.186Z,43.90
2023-01-17T13:40:20.752Z,46.50
2023-01-17T13:42:59.758Z,23.70
2023-01-17T13:45:33.029Z,25.40
2023-01-17T13:48:12.666Z,31.30
2023-01-17T13:51:08.420Z,30.20
2023-01-17T13:53:35.842Z,37.10
2023-01-17T13:56:21.890Z,29.90
2023-01-17T13:58:50.388Z,29.10
2023-01-17T14:01:43.141Z,30.40
2023-01-17T14:04:12.291Z,29.10
2023-01-17T14:06:51.022Z,29.20
2023-01-17T14:09:29.277Z,39.50
2023-01-17T14:12:04.734Z,40.10
2023-01-17T14:14:41.894Z,26.50
2023-01-17T14:17:28.259Z,44.70
2023-01-17T14:19:57.750Z,43.60
2023-01-17T14:22:28.431Z,18.50
2023-01-17T14:25:05.607Z,29.10
2023-01-17T14:27:34.784Z,45.40
2023-01-17T14:30:04.910Z,28.40
2023-01-17T14:32:37.805Z,32.50
2023-01-17T14:35:22.768Z,62.10
2023-01-17T14:37:53.059Z,59.00
2023-01-17T14:40:26.498Z,62.40
2023-01-17T14:43:18.621Z,58.70
2023-01-17T14:45:46.495Z,36.60
2023-01-17T14:48:21.716Z,29.90
2023-01-17T14:50:51.050Z,98.70
2023-01-17T14:53:21.557Z,65.30
2023-01-17T14:55:48.761Z,63.50
2023-01-17T14:58:29.711Z,78.00
2023-01-17T15:01:00.378Z,106.10
2023-01-17T15:03:28.879Z,133.10
2023-01-17T15:06:05.036Z,112.50
2023-01-17T15:08:35.689Z,77.80
2023-01-17T15:11:05.841Z,65.40
2023-01-17T15:13:44.357Z,98.40
2023-01-17T15:16:23.630Z,69.50
2023-01-17T15:18:52.411Z,77.30
2023-01-17T15:21:22.194Z,71.90
2023-01-17T15:24:02.859Z,53.80
2023-01-17T15:26:34.750Z,51.90
2023-01-17T15:29:15.871Z,53.70
2023-01-17T15:31:46.840Z,55.30
2023-01-17T15:34:23.152Z,32.60
2023-01-17T15:36:50.688Z,74.40
2023-01-17T15:39:24.523Z,44.90
2023-01-17T15:41:54.581Z,84.10
2023-01-17T15:44:50.458Z,54.60
2023-01-17T15:47:43.938Z,67.90
2023-01-17T15:50:20.920Z,417.30
2023-01-17T15:52:49.856Z,391.60
2023-01-17T15:55:37.668Z,65.60
2023-01-17T15:58:21.391Z,315.70
2023-01-17T16:00:49.108Z,318.50
2023-01-17T16:03:19.690Z,1132.60
2023-01-17T16:05:47.643Z,148.80
2023-01-17T16:08:28.084Z,454.10
2023-01-17T16:10:59.298Z,86.80
2023-01-17T16:13:26.450Z,86.00
2023-01-17T16:15:53.622Z,1192.50
2023-01-17T16:18:25.985Z,239.60
2023-01-17T16:21:17.086Z,257.50
2023-01-17T16:23:44.938Z,68.70
2023-01-17T16:26:12.157Z,345.60
2023-01-17T16:28:39.516Z,154.00
2023-01-17T16:31:06.816Z,110.20
2023-01-17T16:33:34.913Z,60.60
2023-01-17T16:36:02.088Z,53.60
2023-01-17T16:38:29.345Z,36.10
2023-01-17T16:40:56.599Z,33.00
2023-01-17T16:43:23.824Z,140.30
2023-01-17T16:45:54.136Z,50.40
2023-01-17T16:48:22.172Z,29.50
2023-01-17T16:50:52.356Z,34.00
2023-01-17T16:53:28.312Z,33.90
2023-01-17T16:55:58.825Z,62.90
2023-01-17T16:58:26.029Z,151.80
2023-01-17T17:00:55.423Z,115.30
2023-01-17T17:03:22.981Z,57.80
2023-01-17T17:06:01.003Z,70.00
2023-01-17T17:08:31.704Z,87.90
2023-01-17T17:11:17.628Z,85.00
2023-01-17T17:13:46.229Z,104.50
2023-01-17T17:16:19.497Z,117.10
2023-01-17T17:18:54.264Z,210.00
2023-01-17T17:21:21.975Z,102.40
2023-01-17T17:23:56.757Z,82.80
2023-01-17T17:26:31.258Z,53.60
2023-01-17T17:28:58.763Z,52.30
2023-01-17T17:31:26.779Z,64.40
2023-01-17T17:33:59.738Z,72.60
2023-01-17T17:36:28.488Z,73.50
2023-01-17T17:38:56.833Z,60.30
2023-01-17T17:41:28.900Z,55.10
2023-01-17T17:43:56.175Z,52.30
2023-01-17T17:46:25.205Z,38.80
2023-01-17T17:48:52.502Z,26.10
2023-01-17T17:51:25.876Z,33.90
2023-01-17T17:53:54.722Z,24.00
2023-01-17T17:56:23.501Z,28.80
2023-01-17T17:58:50.829Z,20.00
2023-01-17T18:01:18.282Z,23.20
2023-01-17T18:03:45.492Z,24.50
2023-01-17T18:06:13.303Z,22.70
2023-01-17T18:08:40.479Z,19.70
2023-01-17T18:11:15.059Z,19.10
2023-01-17T18:13:42.972Z,21.50
2023-01-17T18:16:14.461Z,16.00
2023-01-17T18:18:45.857Z,17.20
2023-01-17T18:21:39.803Z,34.60
2023-01-17T18:24:10.417Z,21.70
2023-01-17T18:26:42.226Z,23.50
2023-01-17T18:29:12.649Z,23.10
2023-01-17T18:31:39.906Z,34.80
2023-01-17T18:34:10.456Z,22.90
2023-01-17T18:36:38.376Z,45.20
2023-01-17T18:39:21.099Z,71.50
2023-01-17T18:41:49.186Z,56.60
2023-01-17T18:44:17.032Z,89.00
2023-01-17T18:46:44.279Z,60.00
2023-01-17T18:49:12.416Z,117.00
2023-01-17T18:51:39.748Z,78.20
2023-01-17T18:54:09.018Z,85.80
2023-01-17T18:56:36.334Z,60.80
2023-01-17T18:59:05.979Z,36.90
2023-01-17T19:01:35.852Z,29.70
2023-01-17T19:04:05.673Z,42.50
2023-01-17T19:06:37.590Z,98.60
2023-01-17T19:09:06.686Z,66.20
2023-01-17T19:11:34.938Z,50.50
2023-01-17T19:14:02.930Z,41.70
2023-01-17T19:16:32.301Z,30.30
2023-01-17T19:19:03.656Z,35.80
2023-01-17T19:21:31.378Z,22.90
2023-01-17T19:23:59.455Z,33.30
2023-01-17T19:26:27.976Z,50.00
2023-01-17T19:28:56.854Z,41.80
2023-01-17T19:31:27.016Z,55.10
2023-01-17T19:33:57.620Z,47.50
2023-01-17T19:36:28.000Z,41.30
2023-01-17T19:39:04.555Z,30.00
2023-01-17T19:41:34.465Z,33.80
2023-01-17T19:44:06.190Z,25.60
2023-01-17T19:46:34.331Z,24.30
2023-01-17T19:49:02.053Z,29.40
2023-01-17T19:51:29.285Z,50.00
2023-01-17T19:53:59.256Z,78.10
2023-01-17T19:56:27.414Z,51.30
2023-01-17T19:58:54.713Z,142.40
2023-01-17T20:01:25.468Z,450.30
2023-01-17T20:03:52.864Z,478.90
2023-01-17T20:06:22.561Z,484.30
2023-01-17T20:08:49.857Z,489.80
2023-01-17T20:11:21.920Z,352.90
2023-01-17T20:13:53.512Z,177.70
2023-01-17T20:16:22.015Z,113.00
2023-01-17T20:18:49.479Z,94.80
2023-01-17T20:21:22.324Z,56.60
2023-01-17T20:23:50.997Z,43.50
2023-01-17T20:26:25.215Z,31.80
2023-01-17T20:28:53.498Z,29.90
2023-01-17T20:31:23.546Z,22.10
2023-01-17T20:33:53.141Z,29.60
2023-01-17T20:36:23.282Z,39.40
2023-01-17T20:38:51.025Z,64.10
2023-01-17T20:41:23.625Z,58.10
2023-01-17T20:43:56.403Z,79.40
2023-01-17T20:46:26.286Z,100.50
2023-01-17T20:48:56.804Z,61.90
2023-01-17T20:51:28.917Z,61.00
2023-01-17T20:53:58.575Z,26.90
2023-01-17T20:56:26.804Z,25.10
2023-01-17T20:58:54.688Z,51.30
2023-01-17T21:01:22.942Z,189.00
2023-01-17T21:03:53.233Z,135.20
2023-01-17T21:06:22.333Z,251.70
2023-01-17T21:08:49.882Z,180.60
2023-01-17T21:11:23.096Z,141.70
2023-01-17T21:13:51.611Z,94.30
2023-01-17T21:16:23.086Z,190.80
2023-01-17T21:18:51.710Z,97.50
2023-01-17T21:21:24.254Z,64.00
2023-01-17T21:23:53.939Z,61.30
2023-01-17T21:26:22.677Z,121.20
2023-01-17T21:28:50.921Z,231.90
2023-01-17T21:31:25.025Z,210.60
2023-01-17T21:34:02.729Z,76.80
2023-01-17T21:36:35.347Z,75.20
2023-01-17T21:39:07.675Z,141.40
2023-01-17T21:41:37.410Z,71.50
2023-01-17T21:44:08.765Z,65.30
2023-01-17T21:46:41.051Z,114.50
2023-01-17T21:49:13.252Z,83.00
2023-01-17T21:51:54.379Z,68.70
2023-01-17T21:54:45.281Z,41.00
2023-01-17T21:57:34.120Z,46.50
2023-01-17T22:00:01.336Z,116.40
2023-01-17T22:02:28.619Z,53.80
2023-01-17T22:04:56.414Z,94.20
2023-01-17T22:07:24.929Z,162.80
2023-01-17T22:09:52.026Z,366.30
2023-01-17T22:12:19.489Z,437.80
2023-01-17T22:14:46.683Z,179.00
2023-01-17T22:17:13.803Z,138.20
2023-01-17T22:19:40.910Z,153.00
2023-01-17T22:22:08.138Z,194.30
2023-01-17T22:24:35.342Z,266.90
2023-01-17T22:27:02.364Z,220.50
2023-01-17T22:29:29.749Z,194.70
2023-01-17T22:31:56.945Z,154.20
2023-01-17T22:34:24.147Z,160.60
2023-01-17T22:36:51.253Z,131.20
2023-01-17T22:39:18.366Z,145.50
2023-01-17T22:41:45.569Z,153.60
2023-01-17T22:44:13.022Z,202.40
2023-01-17T22:46:41.550Z,264.20
2023-01-17T22:49:13.440Z,288.50
2023-01-17T22:51:40.601Z,331.50
2023-01-17T22:54:07.953Z,333.20
2023-01-17T22:56:35.079Z,288.70
2023-01-17T22:59:02.488Z,278.60
2023-01-17T23:01:32.747Z,351.80
2023-01-17T23:04:03.087Z,766.50
2023-01-17T23:06:33.261Z,1152.50
2023-01-17T23:09:03.788Z,1146.00
2023-01-17T23:11:45.059Z,941.50
2023-01-17T23:14:15.814Z,670.10
2023-01-17T23:17:03.618Z,541.00
2023-01-17T23:19:52.139Z,534.00
2023-01-17T23:22:29.117Z,475.00
2023-01-17T23:25:00.319Z,477.90
2023-01-17T23:27:54.953Z,377.40
2023-01-17T23:30:25.178Z,295.40
2023-01-17T23:32:58.659Z,200.70
2023-01-17T23:35:28.269Z,183.90
2023-01-17T23:38:14.519Z,173.50
2023-01-17T23:40:42.560Z,178.80
2023-01-17T23:43:24.878Z,172.70
2023-01-17T23:45:53.509Z,172.50
2023-01-17T23:48:24.055Z,164.60
2023-01-17T23:50:51.488Z,116.70
2023-01-17T23:53:23.439Z,114.50
2023-01-17T23:55:53.397Z,89.50
2023-01-17T23:58:23.668Z,96.10
